createdAt,value
2022-09-07T00:00:57.778Z,76.54
2022-09-07T00:01:37.597Z,76.76
2022-09-07T00:02:24.594Z,76.48
2022-09-07T00:03:18.728Z,76.27
2022-09-07T00:04:12.603Z,76.45
2022-09-07T00:05:06.558Z,76.09
2022-09-07T00:06:02.560Z,76.12
2022-09-07T00:06:56.544Z,76.05
2022-09-07T00:07:43.580Z,75.82
2022-09-07T00:08:17.633Z,75.68
2022-09-07T00:09:04.551Z,75.96
2022-09-07T00:09:38.750Z,75.85
2022-09-07T00:10:25.568Z,75.72
2022-09-07T00:11:11.648Z,75.51
2022-09-07T00:11:58.539Z,75.65
2022-09-07T00:12:32.620Z,75.45
2022-09-07T00:13:14.598Z,75.42
2022-09-07T00:13:55.636Z,75.46
2022-09-07T00:14:35.584Z,75.38
2022-09-07T00:15:16.694Z,75.45
2022-09-07T00:15:57.623Z,75.36
2022-09-07T00:16:38.752Z,75.42
2022-09-07T00:17:18.553Z,75.04
2022-09-07T00:17:58.615Z,74.72
2022-09-07T00:18:43.680Z,75.26
2022-09-07T00:19:26.600Z,75.16
2022-09-07T00:20:07.539Z,74.91
2022-09-07T00:20:47.600Z,74.86
2022-09-07T00:21:28.576Z,74.96
2022-09-07T00:22:08.636Z,75.04
2022-09-07T00:22:48.542Z,74.90
2022-09-07T00:23:28.791Z,74.81
2022-09-07T00:24:09.591Z,74.51
2022-09-07T00:24:49.634Z,74.45
2022-09-07T00:25:31.947Z,74.63
2022-09-07T00:26:20.691Z,74.68
2022-09-07T00:27:03.552Z,74.75
2022-09-07T00:27:43.820Z,74.76
2022-09-07T00:28:24.635Z,75.01
2022-09-07T00:29:07.978Z,74.90
2022-09-07T00:29:48.641Z,74.76
2022-09-07T00:30:28.666Z,75.01
2022-09-07T00:31:09.580Z,74.87
2022-09-07T00:31:49.673Z,74.95
2022-09-07T00:32:29.534Z,74.83
2022-09-07T00:33:09.589Z,74.82
2022-09-07T00:33:50.515Z,74.06
2022-09-07T00:34:30.639Z,74.67
2022-09-07T00:35:11.570Z,74.85
2022-09-07T00:35:51.874Z,74.79
2022-09-07T00:36:32.575Z,74.84
2022-09-07T00:37:12.650Z,74.72
2022-09-07T00:37:52.528Z,74.64
2022-09-07T00:38:32.651Z,74.26
2022-09-07T00:39:13.537Z,74.51
2022-09-07T00:39:53.639Z,74.59
2022-09-07T00:40:34.536Z,74.18
2022-09-07T00:41:15.758Z,74.22
2022-09-07T00:41:55.537Z,74.50
2022-09-07T00:42:35.786Z,74.70
2022-09-07T00:43:23.540Z,74.63
2022-09-07T00:44:25.608Z,74.43
2022-09-07T00:45:14.522Z,74.39
2022-09-07T00:45:54.553Z,74.34
2022-09-07T00:46:36.491Z,74.15
2022-09-07T00:47:50.532Z,74.52
2022-09-07T00:48:25.585Z,74.53
2022-09-07T00:49:30.517Z,74.54
2022-09-07T00:50:10.621Z,74.63
2022-09-07T00:51:02.542Z,74.56
2022-09-07T00:51:43.644Z,74.54
2022-09-07T00:52:31.530Z,74.32
2022-09-07T00:53:29.650Z,74.46
2022-09-07T00:54:23.527Z,74.40
2022-09-07T00:55:06.739Z,74.48
2022-09-07T00:55:55.509Z,74.49
2022-09-07T00:56:40.546Z,74.78
2022-09-07T00:57:37.513Z,74.79
2022-09-07T00:58:34.501Z,74.93
2022-09-07T00:59:31.516Z,74.92
2022-09-07T01:00:25.518Z,74.69
2022-09-07T01:01:20.657Z,74.65
2022-09-07T01:02:01.611Z,74.75
2022-09-07T01:02:41.818Z,75.08
2022-09-07T01:03:42.513Z,75.13
2022-09-07T01:04:23.622Z,74.94
2022-09-07T01:05:13.505Z,75.02
2022-09-07T01:06:26.563Z,74.97
2022-09-07T01:07:07.546Z,75.09
2022-09-07T01:07:47.572Z,75.46
2022-09-07T01:08:28.530Z,75.47
2022-09-07T01:09:28.579Z,75.85
2022-09-07T01:10:09.493Z,75.86
2022-09-07T01:10:49.592Z,75.54
2022-09-07T01:11:30.496Z,75.70
2022-09-07T01:12:17.542Z,75.81
2022-09-07T01:13:14.513Z,75.45
2022-09-07T01:14:08.492Z,75.57
2022-09-07T01:15:05.505Z,75.72
2022-09-07T01:16:17.560Z,75.83
2022-09-07T01:17:47.509Z,75.77
2022-09-07T01:19:13.497Z,75.93
2022-09-07T01:20:40.506Z,75.90
2022-09-07T01:21:45.525Z,75.97
2022-09-07T01:22:48.526Z,75.76
2022-09-07T01:24:11.507Z,75.73
2022-09-07T01:25:36.488Z,75.80
2022-09-07T01:27:30.505Z,75.52
2022-09-07T01:28:28.592Z,75.69
2022-09-07T01:29:52.585Z,75.75
2022-09-07T01:30:34.507Z,76.14
2022-09-07T01:31:54.566Z,76.17
2022-09-07T01:33:11.492Z,76.21
2022-09-07T01:34:14.576Z,76.13
2022-09-07T01:34:50.621Z,76.29
2022-09-07T01:35:49.485Z,76.08
2022-09-07T01:36:40.566Z,76.15
2022-09-07T01:37:57.210Z,76.15
2022-09-07T01:38:54.595Z,75.97
2022-09-07T01:39:58.556Z,75.88
2022-09-07T01:41:05.629Z,75.65
2022-09-07T01:42:05.460Z,75.64
2022-09-07T01:42:55.573Z,75.55
2022-09-07T01:44:03.463Z,75.62
2022-09-07T01:45:09.545Z,75.59
2022-09-07T01:46:04.526Z,75.43
2022-09-07T01:47:19.486Z,75.39
2022-09-07T01:48:19.472Z,75.51
2022-09-07T01:49:51.470Z,76.19
2022-09-07T01:50:52.512Z,75.83
2022-09-07T01:51:38.521Z,75.67
2022-09-07T01:52:48.483Z,75.58
2022-09-07T01:53:48.587Z,75.53
2022-09-07T01:54:37.470Z,75.33
2022-09-07T01:55:29.537Z,75.33
2022-09-07T01:56:25.498Z,75.24
2022-09-07T01:57:15.563Z,75.44
2022-09-07T01:58:17.454Z,75.43
2022-09-07T01:59:12.544Z,75.37
2022-09-07T02:00:06.456Z,75.41
2022-09-07T02:00:53.791Z,75.47
2022-09-07T02:01:53.547Z,75.43
2022-09-07T02:02:46.565Z,75.61
2022-09-07T02:03:39.445Z,75.12
2022-09-07T02:04:34.528Z,75.14
2022-09-07T02:05:41.462Z,75.58
2022-09-07T02:06:46.564Z,75.31
2022-09-07T02:07:51.477Z,75.41
2022-09-07T02:08:40.522Z,75.02
2022-09-07T02:09:39.455Z,75.08
2022-09-07T02:10:25.556Z,75.12
2022-09-07T02:11:15.449Z,75.01
2022-09-07T02:11:55.529Z,74.73
2022-09-07T02:13:17.482Z,74.99
2022-09-07T02:14:14.652Z,74.73
2022-09-07T02:14:59.445Z,74.75
2022-09-07T02:16:20.551Z,74.51
2022-09-07T02:17:15.430Z,74.30
2022-09-07T02:18:00.592Z,74.08
2022-09-07T02:18:48.496Z,74.06
2022-09-07T02:19:31.508Z,74.13
2022-09-07T02:20:28.464Z,73.89
2022-09-07T02:21:09.508Z,74.23
2022-09-07T02:21:56.433Z,73.90
2022-09-07T02:22:40.544Z,73.70
2022-09-07T02:23:29.445Z,73.82
2022-09-07T02:24:33.447Z,73.64
2022-09-07T02:25:10.521Z,73.45
2022-09-07T02:26:06.426Z,73.36
2022-09-07T02:26:42.565Z,73.09
2022-09-07T02:27:52.445Z,73.29
2022-09-07T02:28:32.780Z,73.36
2022-09-07T02:29:19.431Z,73.14
2022-09-07T02:30:00.461Z,73.00
2022-09-07T02:30:54.454Z,73.23
2022-09-07T02:31:48.443Z,72.87
2022-09-07T02:32:42.465Z,72.85
2022-09-07T02:33:36.427Z,72.60
2022-09-07T02:34:30.462Z,72.58
2022-09-07T02:35:17.529Z,72.32
2022-09-07T02:35:52.536Z,72.38
2022-09-07T02:36:46.405Z,71.80
2022-09-07T02:37:21.484Z,71.96
2022-09-07T02:38:11.434Z,71.99
2022-09-07T02:38:45.500Z,71.88
2022-09-07T02:39:32.468Z,71.50
2022-09-07T02:40:06.988Z,71.58
2022-09-07T02:40:47.487Z,71.59
2022-09-07T02:41:44.524Z,71.50
2022-09-07T02:42:24.419Z,71.26
2022-09-07T02:43:10.497Z,71.02
2022-09-07T02:43:50.466Z,71.38
2022-09-07T02:44:35.524Z,71.47
2022-09-07T02:45:18.437Z,71.47
2022-09-07T02:46:56.463Z,71.68
2022-09-07T02:48:17.410Z,72.15
2022-09-07T02:49:39.420Z,72.15
2022-09-07T02:51:17.425Z,72.09
2022-09-07T02:52:32.457Z,72.17
2022-09-07T02:53:42.431Z,72.11
2022-09-07T02:55:23.420Z,72.02
2022-09-07T02:56:41.411Z,72.06
2022-09-07T02:58:33.461Z,72.10
2022-09-07T03:00:10.440Z,71.94
2022-09-07T03:01:42.551Z,71.67
2022-09-07T03:02:49.509Z,71.77
2022-09-07T03:04:15.464Z,71.89
2022-09-07T03:05:30.408Z,71.78
2022-09-07T03:06:40.448Z,71.83
2022-09-07T03:07:56.402Z,71.75
2022-09-07T03:09:02.385Z,71.42
2022-09-07T03:09:46.471Z,71.15
2022-09-07T03:10:26.482Z,71.55
2022-09-07T03:11:07.404Z,71.44
2022-09-07T03:11:47.455Z,71.45
2022-09-07T03:12:28.416Z,71.59
2022-09-07T03:13:08.501Z,71.38
2022-09-07T03:13:48.389Z,71.65
2022-09-07T03:14:33.720Z,71.69
2022-09-07T03:15:15.438Z,71.70
2022-09-07T03:15:56.357Z,71.75
2022-09-07T03:16:36.389Z,71.96
2022-09-07T03:17:17.597Z,71.89
2022-09-07T03:17:58.409Z,71.71
2022-09-07T03:18:39.477Z,72.33
2022-09-07T03:19:19.399Z,72.57
2022-09-07T03:19:59.470Z,72.72
2022-09-07T03:20:39.405Z,72.62
2022-09-07T03:21:19.458Z,72.63
2022-09-07T03:22:00.368Z,72.91
2022-09-07T03:22:40.481Z,72.94
2022-09-07T03:23:21.396Z,72.73
2022-09-07T03:24:01.465Z,72.93
2022-09-07T03:24:43.421Z,73.09
2022-09-07T03:25:24.459Z,73.03
2022-09-07T03:26:04.424Z,73.12
2022-09-07T03:26:50.507Z,73.16
2022-09-07T03:27:30.378Z,72.96
2022-09-07T03:28:10.482Z,73.19
2022-09-07T03:28:50.405Z,73.35
2022-09-07T03:29:30.513Z,73.45
2022-09-07T03:30:13.390Z,73.25
2022-09-07T03:30:53.480Z,73.26
2022-09-07T03:31:33.404Z,73.42
2022-09-07T03:32:13.434Z,73.20
2022-09-07T03:32:54.381Z,73.26
2022-09-07T03:33:34.486Z,73.60
2022-09-07T03:34:15.373Z,73.55
2022-09-07T03:34:55.471Z,73.68
2022-09-07T03:35:35.378Z,73.84
2022-09-07T03:36:15.482Z,73.53
2022-09-07T03:36:55.481Z,73.70
2022-09-07T03:37:36.464Z,73.57
2022-09-07T03:38:16.373Z,73.68
2022-09-07T03:38:56.500Z,73.64
2022-09-07T03:39:37.405Z,73.52
2022-09-07T03:40:20.436Z,73.75
2022-09-07T03:41:12.372Z,73.79
2022-09-07T03:41:52.659Z,73.71
2022-09-07T03:42:33.391Z,74.00
2022-09-07T03:43:13.472Z,73.96
2022-09-07T03:43:55.384Z,74.10
2022-09-07T03:44:35.492Z,74.11
2022-09-07T03:45:17.408Z,74.13
2022-09-07T03:45:57.502Z,73.79
2022-09-07T03:46:38.371Z,73.87
2022-09-07T03:47:18.482Z,73.79
2022-09-07T03:48:03.772Z,73.89
2022-09-07T03:48:45.572Z,73.74
2022-09-07T03:49:25.370Z,73.80
2022-09-07T03:50:05.460Z,73.69
2022-09-07T03:50:45.372Z,73.81
2022-09-07T03:51:25.436Z,73.92
2022-09-07T03:52:06.370Z,73.74
2022-09-07T03:52:46.413Z,73.92
2022-09-07T03:53:27.446Z,73.70
2022-09-07T03:54:07.482Z,73.55
2022-09-07T03:54:47.345Z,73.71
2022-09-07T03:55:27.439Z,73.58
2022-09-07T03:56:12.365Z,73.47
2022-09-07T03:56:52.428Z,73.85
2022-09-07T03:57:33.359Z,74.01
2022-09-07T03:58:13.412Z,73.83
2022-09-07T03:58:55.395Z,73.49
2022-09-07T03:59:35.421Z,73.58
2022-09-07T04:00:16.340Z,73.54
2022-09-07T04:00:56.611Z,73.75
2022-09-07T04:01:36.400Z,73.58
2022-09-07T04:02:16.498Z,73.25
2022-09-07T04:02:56.405Z,73.03
2022-09-07T04:03:36.462Z,73.09
2022-09-07T04:04:17.391Z,72.94
2022-09-07T04:04:57.521Z,73.05
2022-09-07T04:05:39.365Z,73.11
2022-09-07T04:06:20.499Z,73.03
2022-09-07T04:07:01.341Z,72.95
2022-09-07T04:07:41.412Z,72.91
2022-09-07T04:08:22.334Z,73.05
2022-09-07T04:09:02.572Z,72.89
2022-09-07T04:09:43.375Z,72.98
2022-09-07T04:10:23.410Z,72.82
2022-09-07T04:11:05.344Z,72.97
2022-09-07T04:11:45.412Z,72.79
2022-09-07T04:12:25.332Z,72.86
2022-09-07T04:13:05.422Z,73.01
2022-09-07T04:13:46.349Z,73.00
2022-09-07T04:14:26.428Z,72.96
2022-09-07T04:15:07.361Z,72.94
2022-09-07T04:15:50.945Z,73.28
2022-09-07T04:16:34.381Z,73.10
2022-09-07T04:17:14.512Z,73.00
2022-09-07T04:17:55.334Z,73.33
2022-09-07T04:18:35.415Z,73.10
2022-09-07T04:19:15.329Z,72.88
2022-09-07T04:19:56.048Z,72.95
2022-09-07T04:20:38.357Z,73.25
2022-09-07T04:21:19.412Z,73.15
2022-09-07T04:22:00.349Z,73.12
2022-09-07T04:22:40.419Z,73.02
2022-09-07T04:23:21.329Z,73.07
2022-09-07T04:24:02.421Z,73.05
2022-09-07T04:24:42.323Z,72.93
2022-09-07T04:25:23.409Z,72.80
2022-09-07T04:26:04.356Z,72.92
2022-09-07T04:26:44.441Z,72.96
2022-09-07T04:27:25.325Z,72.65
2022-09-07T04:28:05.368Z,72.78
2022-09-07T04:28:45.398Z,72.58
2022-09-07T04:29:25.452Z,72.46
2022-09-07T04:30:05.320Z,72.51
2022-09-07T04:30:45.446Z,72.39
2022-09-07T04:31:26.413Z,72.42
2022-09-07T04:32:06.386Z,72.34
2022-09-07T04:32:46.314Z,72.37
2022-09-07T04:33:26.401Z,72.42
2022-09-07T04:34:07.307Z,72.07
2022-09-07T04:34:47.409Z,72.52
2022-09-07T04:35:27.317Z,72.53
2022-09-07T04:36:08.419Z,72.63
2022-09-07T04:36:49.358Z,72.51
2022-09-07T04:37:29.508Z,73.16
2022-09-07T04:38:10.309Z,72.90
2022-09-07T04:38:51.416Z,72.81
2022-09-07T04:39:32.328Z,72.70
2022-09-07T04:40:12.436Z,72.58
2022-09-07T04:40:52.305Z,72.20
2022-09-07T04:41:33.492Z,72.13
2022-09-07T04:42:14.441Z,72.05
2022-09-07T04:42:54.374Z,72.19
2022-09-07T04:43:36.311Z,71.85
2022-09-07T04:44:17.386Z,71.63
2022-09-07T04:44:57.310Z,72.02
2022-09-07T04:45:38.422Z,71.97
2022-09-07T04:46:29.348Z,72.01
2022-09-07T04:47:09.409Z,71.93
2022-09-07T04:47:55.329Z,72.02
2022-09-07T04:48:35.426Z,72.11
2022-09-07T04:49:17.311Z,72.18
2022-09-07T04:50:00.404Z,72.09
2022-09-07T04:50:41.297Z,71.89
2022-09-07T04:51:21.368Z,71.99
2022-09-07T04:52:01.299Z,72.33
2022-09-07T04:52:41.366Z,72.34
2022-09-07T04:53:22.327Z,72.49
2022-09-07T04:54:04.410Z,72.48
2022-09-07T04:54:45.327Z,72.44
2022-09-07T04:55:25.420Z,72.47
2022-09-07T04:56:06.345Z,72.72
2022-09-07T04:56:46.398Z,72.64
2022-09-07T04:57:30.324Z,72.53
2022-09-07T04:58:10.405Z,72.33
2022-09-07T04:58:52.327Z,72.15
2022-09-07T04:59:32.426Z,72.43
2022-09-07T05:00:15.320Z,72.29
2022-09-07T05:00:55.449Z,72.11
2022-09-07T05:01:36.362Z,72.32
2022-09-07T05:02:16.441Z,72.12
2022-09-07T05:02:56.306Z,72.24
2022-09-07T05:03:37.381Z,72.13
2022-09-07T05:04:18.340Z,71.79
2022-09-07T05:05:02.072Z,71.89
2022-09-07T05:05:45.325Z,71.86
2022-09-07T05:06:26.365Z,71.99
2022-09-07T05:07:06.308Z,71.83
2022-09-07T05:07:46.392Z,71.84
2022-09-07T05:08:26.398Z,72.18
2022-09-07T05:09:07.389Z,72.02
2022-09-07T05:09:48.345Z,72.02
2022-09-07T05:10:28.388Z,71.68
2022-09-07T05:11:08.303Z,71.83
2022-09-07T05:11:48.623Z,72.00
2022-09-07T05:12:28.277Z,72.13
2022-09-07T05:13:08.370Z,72.05
2022-09-07T05:13:49.289Z,71.81
2022-09-07T05:14:29.365Z,71.77
2022-09-07T05:15:11.356Z,71.71
2022-09-07T05:15:51.345Z,72.01
2022-09-07T05:16:32.413Z,71.74
2022-09-07T05:17:14.460Z,71.75
2022-09-07T05:17:56.289Z,71.51
2022-09-07T05:18:51.298Z,71.33
2022-09-07T05:19:45.277Z,71.36
2022-09-07T05:20:32.312Z,71.15
2022-09-07T05:21:19.436Z,71.21
2022-09-07T05:22:14.285Z,71.11
2022-09-07T05:22:48.344Z,71.08
2022-09-07T05:23:35.300Z,70.91
2022-09-07T05:24:09.402Z,71.03
2022-09-07T05:24:56.293Z,70.61
2022-09-07T05:25:33.609Z,70.70
2022-09-07T05:26:15.420Z,70.79
2022-09-07T05:26:55.360Z,70.57
2022-09-07T05:27:35.320Z,70.57
2022-09-07T05:28:19.392Z,70.25
2022-09-07T05:31:41.296Z,70.04
2022-09-07T05:32:15.412Z,70.06
2022-09-07T05:33:03.264Z,70.15
2022-09-07T05:34:44.285Z,70.67
2022-09-07T05:35:21.437Z,70.55
2022-09-07T05:36:13.260Z,70.11
2022-09-07T05:36:54.300Z,69.94
2022-09-07T05:37:48.283Z,70.08
2022-09-07T05:38:43.268Z,69.87
2022-09-07T05:39:37.328Z,70.11
2022-09-07T05:40:31.265Z,69.68
2022-09-07T05:41:34.288Z,69.76
2022-09-07T05:42:15.394Z,69.83
2022-09-07T05:42:55.345Z,69.68
2022-09-07T05:44:45.606Z,70.01
2022-09-07T05:45:26.582Z,70.22
2022-09-07T05:46:07.424Z,69.68
2022-09-07T05:46:48.277Z,69.81
2022-09-07T05:47:35.281Z,69.69
2022-09-07T05:48:29.385Z,69.43
2022-09-07T05:49:23.309Z,69.24
2022-09-07T05:50:20.276Z,69.45
2022-09-07T05:51:21.262Z,69.25
2022-09-07T05:52:15.278Z,69.21
2022-09-07T05:52:56.279Z,69.01
2022-09-07T05:53:36.367Z,69.42
2022-09-07T05:54:18.265Z,69.15
2022-09-07T05:55:07.720Z,69.16
2022-09-07T05:55:54.272Z,69.14
2022-09-07T05:56:34.342Z,68.88
2022-09-07T05:57:19.258Z,68.74
2022-09-07T05:58:06.321Z,68.95
2022-09-07T05:59:03.246Z,69.05
2022-09-07T05:59:57.265Z,69.26
2022-09-07T06:00:51.279Z,69.24
2022-09-07T06:01:45.283Z,69.05
2022-09-07T06:02:39.969Z,69.24
2022-09-07T06:03:27.361Z,69.18
2022-09-07T06:04:01.306Z,68.79
2022-09-07T06:04:49.253Z,68.79
2022-09-07T06:05:23.316Z,68.85
2022-09-07T06:06:23.263Z,68.91
2022-09-07T06:08:04.242Z,68.81
2022-09-07T06:08:46.287Z,69.05
2022-09-07T06:10:54.247Z,69.00
2022-09-07T06:11:48.238Z,69.11
2022-09-07T06:12:44.464Z,69.05
2022-09-07T06:13:42.273Z,69.14
2022-09-07T06:14:23.322Z,68.71
2022-09-07T06:15:04.865Z,68.75
2022-09-07T06:15:45.237Z,68.58
2022-09-07T06:16:26.429Z,68.71
2022-09-07T06:17:07.219Z,68.82
2022-09-07T06:17:47.289Z,68.73
2022-09-07T06:18:27.245Z,68.94
2022-09-07T06:19:12.311Z,69.09
2022-09-07T06:19:52.261Z,68.97
2022-09-07T06:20:32.304Z,69.09
2022-09-07T06:21:25.224Z,69.20
2022-09-07T06:22:21.261Z,69.14
2022-09-07T06:23:15.220Z,69.19
2022-09-07T06:24:09.254Z,69.00
2022-09-07T06:25:03.254Z,69.40
2022-09-07T06:26:03.230Z,69.22
2022-09-07T06:26:57.263Z,69.33
2022-09-07T06:27:51.261Z,69.33
2022-09-07T06:28:57.928Z,69.43
2022-09-07T06:29:52.214Z,69.28
2022-09-07T06:30:33.245Z,69.37
2022-09-07T06:31:23.636Z,69.37
2022-09-07T06:33:17.072Z,69.94
2022-09-07T06:34:04.216Z,69.80
2022-09-07T06:34:44.314Z,70.03
2022-09-07T06:35:25.217Z,69.92
2022-09-07T06:36:08.249Z,70.05
2022-09-07T06:36:42.298Z,70.06
2022-09-07T06:37:29.213Z,69.79
2022-09-07T06:38:03.298Z,69.97
2022-09-07T06:38:51.225Z,70.20
2022-09-07T06:39:25.473Z,70.24
2022-09-07T06:40:14.289Z,70.32
2022-09-07T06:40:48.784Z,70.21
2022-09-07T06:42:35.360Z,70.46
2022-09-07T06:43:16.213Z,70.36
2022-09-07T06:43:56.337Z,70.49
2022-09-07T06:44:38.198Z,70.48
2022-09-07T06:45:21.303Z,70.30
2022-09-07T06:47:40.320Z,69.63
2022-09-07T06:48:28.336Z,69.87
2022-09-07T06:49:02.333Z,70.01
2022-09-07T06:49:49.194Z,69.93
2022-09-07T06:50:23.296Z,70.02
2022-09-07T06:51:16.196Z,69.75
2022-09-07T06:51:50.309Z,69.84
2022-09-07T06:53:41.664Z,70.01
2022-09-07T06:55:28.304Z,70.37
2022-09-07T06:56:12.235Z,70.32
2022-09-07T06:56:52.306Z,70.12
2022-09-07T06:57:33.377Z,70.14
2022-09-07T06:58:13.322Z,69.78
2022-09-07T06:58:54.218Z,70.20
2022-09-07T06:59:34.347Z,70.11
2022-09-07T07:00:16.211Z,70.06
2022-09-07T07:00:56.592Z,69.87
2022-09-07T07:01:39.245Z,69.98
2022-09-07T07:02:19.562Z,69.71
2022-09-07T07:03:00.350Z,69.72
2022-09-07T07:03:40.403Z,69.96
2022-09-07T07:04:21.177Z,69.96
2022-09-07T07:05:01.263Z,69.97
2022-09-07T07:05:41.195Z,69.81
2022-09-07T07:06:23.376Z,69.66
2022-09-07T07:07:04.212Z,69.62
2022-09-07T07:07:57.245Z,69.50
2022-09-07T07:09:45.334Z,69.54
2022-09-07T07:10:25.336Z,69.59
2022-09-07T07:11:11.290Z,69.47
2022-09-07T07:11:54.204Z,69.74
2022-09-07T07:14:04.217Z,69.43
2022-09-07T07:14:58.188Z,69.65
2022-09-07T07:15:52.195Z,69.64
2022-09-07T07:16:46.197Z,69.63
2022-09-07T07:17:40.201Z,69.74
2022-09-07T07:18:34.401Z,69.83
2022-09-07T07:19:21.219Z,69.49
2022-09-07T07:19:55.276Z,69.32
2022-09-07T07:20:44.196Z,69.42
2022-09-07T07:21:21.230Z,69.16
2022-09-07T07:23:03.172Z,69.49
2022-09-07T07:23:37.313Z,69.38
2022-09-07T07:24:10.930Z,69.24
2022-09-07T07:24:52.233Z,69.46
2022-09-07T07:25:26.357Z,69.60
2022-09-07T07:26:26.815Z,69.77
2022-09-07T07:27:07.181Z,69.86
2022-09-07T07:27:42.295Z,69.17
2022-09-07T07:29:18.712Z,69.27
2022-09-07T07:30:00.206Z,69.23
2022-09-07T07:30:33.904Z,69.28
2022-09-07T07:31:21.201Z,69.56
2022-09-07T07:31:54.932Z,69.37
2022-09-07T07:32:42.167Z,69.43
2022-09-07T07:33:15.996Z,69.30
2022-09-07T07:34:04.170Z,69.47
2022-09-07T07:34:37.888Z,69.39
2022-09-07T07:35:26.238Z,69.20
2022-09-07T07:36:22.703Z,69.13
2022-09-07T07:37:10.114Z,69.32
2022-09-07T07:37:43.850Z,69.39
2022-09-07T07:40:34.181Z,69.44
2022-09-07T07:42:19.105Z,69.15
2022-09-07T07:43:01.388Z,69.15
2022-09-07T07:44:04.550Z,69.30
2022-09-07T07:44:45.272Z,69.44
2022-09-07T07:46:29.232Z,69.17
2022-09-07T07:47:09.185Z,69.26
2022-09-07T07:47:50.084Z,69.30
2022-09-07T07:48:31.097Z,69.29
2022-09-07T07:49:11.150Z,69.33
2022-09-07T07:50:30.591Z,69.49
2022-09-07T07:50:52.129Z,69.34
2022-09-07T07:54:08.109Z,69.35
2022-09-07T07:55:42.428Z,68.78
2022-09-07T07:56:17.105Z,68.97
2022-09-07T07:57:04.310Z,69.20
2022-09-07T07:57:39.209Z,69.33
2022-09-07T07:58:27.129Z,69.33
2022-09-07T07:59:01.605Z,69.54
2022-09-07T07:59:49.084Z,69.32
2022-09-07T08:00:37.417Z,69.17
2022-09-07T08:01:30.133Z,69.24
2022-09-07T08:02:11.219Z,69.33
2022-09-07T08:03:05.103Z,69.57
2022-09-07T08:04:00.134Z,69.39
2022-09-07T08:04:54.115Z,69.08
2022-09-07T08:05:51.132Z,69.37
2022-09-07T08:06:45.090Z,68.83
2022-09-07T08:07:32.145Z,68.76
2022-09-07T08:08:06.195Z,68.84
2022-09-07T08:08:54.097Z,68.92
2022-09-07T08:09:28.155Z,68.74
2022-09-07T08:10:18.110Z,69.15
2022-09-07T08:10:52.286Z,69.00
2022-09-07T08:11:41.118Z,68.78
2022-09-07T08:12:17.224Z,68.90
2022-09-07T08:12:58.129Z,68.92
2022-09-07T08:13:56.081Z,68.50
2022-09-07T08:14:50.099Z,68.57
2022-09-07T08:15:44.096Z,69.11
2022-09-07T08:16:38.128Z,69.01
2022-09-07T08:17:32.122Z,68.91
2022-09-07T08:18:21.165Z,69.29
2022-09-07T08:18:55.217Z,69.45
2022-09-07T08:19:42.093Z,69.49
2022-09-07T08:20:16.205Z,68.96
2022-09-07T08:21:12.094Z,69.08
2022-09-07T08:21:46.187Z,69.11
2022-09-07T08:22:34.940Z,68.71
2022-09-07T08:23:09.529Z,69.20
2022-09-07T08:23:50.140Z,69.13
2022-09-07T08:24:30.212Z,69.26
2022-09-07T08:25:11.146Z,69.03
2022-09-07T08:26:00.412Z,69.14
2022-09-07T08:26:41.151Z,68.80
2022-09-07T08:27:25.686Z,68.99
2022-09-07T08:28:08.065Z,68.80
2022-09-07T08:28:49.315Z,68.56
2022-09-07T08:29:33.533Z,68.55
2022-09-07T08:30:17.149Z,68.60
2022-09-07T08:30:58.101Z,68.47
2022-09-07T08:31:38.191Z,67.64
2022-09-07T08:32:18.082Z,67.82
2022-09-07T08:32:58.189Z,67.94
2022-09-07T08:33:38.094Z,67.91
2022-09-07T08:34:18.181Z,68.30
2022-09-07T08:34:58.117Z,68.24
2022-09-07T08:35:38.131Z,68.12
2022-09-07T08:36:25.076Z,67.91
2022-09-07T08:37:05.352Z,68.02
2022-09-07T08:37:45.066Z,67.54
2022-09-07T08:38:25.249Z,67.84
2022-09-07T08:39:06.073Z,67.57
2022-09-07T08:39:46.288Z,67.84
2022-09-07T08:40:27.091Z,67.72
2022-09-07T08:41:08.137Z,67.32
2022-09-07T08:42:10.066Z,67.45
2022-09-07T08:43:44.830Z,67.28
2022-09-07T08:45:07.054Z,67.17
2022-09-07T08:45:52.090Z,67.33
2022-09-07T08:46:47.207Z,67.09
2022-09-07T08:47:44.054Z,66.78
2022-09-07T08:48:22.110Z,66.74
2022-09-07T08:49:12.087Z,66.76
2022-09-07T08:50:25.197Z,66.56
2022-09-07T08:51:31.090Z,66.96
2022-09-07T08:52:12.168Z,67.18
2022-09-07T08:53:08.054Z,67.24
2022-09-07T08:53:50.169Z,67.30
2022-09-07T08:54:37.035Z,67.06
2022-09-07T08:55:34.169Z,67.54
2022-09-07T08:56:37.642Z,67.24
2022-09-07T08:57:23.204Z,67.03
2022-09-07T08:58:54.053Z,66.86
2022-09-07T08:59:56.141Z,66.44
2022-09-07T09:00:38.056Z,66.59
2022-09-07T09:01:37.029Z,66.45
2022-09-07T09:02:30.039Z,66.31
2022-09-07T09:04:33.835Z,65.99
2022-09-07T09:05:16.563Z,65.85
2022-09-07T09:06:38.200Z,66.12
2022-09-07T09:07:13.661Z,66.09
2022-09-07T09:08:20.085Z,65.58
2022-09-07T09:09:37.669Z,65.67
2022-09-07T09:10:56.064Z,65.65
2022-09-07T09:12:15.123Z,65.34
2022-09-07T09:13:25.137Z,64.91
2022-09-07T09:14:46.111Z,64.88
2022-09-07T09:15:51.102Z,65.17
2022-09-07T09:16:45.189Z,64.60
2022-09-07T09:18:03.047Z,64.46
2022-09-07T09:19:43.071Z,64.67
2022-09-07T09:20:29.113Z,64.15
2022-09-07T09:21:22.018Z,63.82
2022-09-07T09:21:56.125Z,63.50
2022-09-07T09:22:43.074Z,63.45
2022-09-07T09:23:23.120Z,62.83
2022-09-07T09:24:23.063Z,63.06
2022-09-07T09:25:26.093Z,62.96
2022-09-07T09:26:42.095Z,62.67
2022-09-07T09:27:36.025Z,62.70
2022-09-07T09:28:34.325Z,62.82
2022-09-07T09:29:33.049Z,63.08
2022-09-07T09:30:35.072Z,62.99
2022-09-07T09:31:42.139Z,62.47
2022-09-07T09:32:57.023Z,62.75
2022-09-07T09:33:52.006Z,62.64
2022-09-07T09:34:49.034Z,62.47
2022-09-07T09:35:49.058Z,62.05
2022-09-07T09:37:09.450Z,62.10
2022-09-07T09:38:05.014Z,61.56
2022-09-07T09:38:59.018Z,61.76
2022-09-07T09:39:55.437Z,61.61
2022-09-07T09:40:52.062Z,61.70
2022-09-07T09:41:53.024Z,61.65
2022-09-07T09:42:49.032Z,61.73
2022-09-07T09:44:08.033Z,60.67
2022-09-07T09:45:02.010Z,60.73
2022-09-07T09:46:17.439Z,61.04
2022-09-07T09:48:35.020Z,60.57
2022-09-07T09:49:39.001Z,60.64
2022-09-07T09:53:00.069Z,60.17
2022-09-07T09:54:00.032Z,60.32
2022-09-07T09:54:47.287Z,60.02
2022-09-07T09:55:36.291Z,59.93
2022-09-07T09:56:17.106Z,59.62
2022-09-07T09:56:59.006Z,59.73
2022-09-07T09:59:05.780Z,59.72
2022-09-07T10:00:14.883Z,60.23
2022-09-07T10:01:23.199Z,60.20
2022-09-07T10:04:42.013Z,59.45
2022-09-07T10:05:42.089Z,59.76
2022-09-07T10:06:24.990Z,59.53
2022-09-07T10:07:28.137Z,59.47
2022-09-07T10:08:09.037Z,59.19
2022-09-07T10:09:08.075Z,58.64
2022-09-07T10:09:53.993Z,58.84
2022-09-07T10:10:35.073Z,58.80
2022-09-07T10:11:17.019Z,57.86
2022-09-07T10:12:06.711Z,57.95
2022-09-07T10:12:48.992Z,57.97
2022-09-07T10:13:39.065Z,57.96
2022-09-07T10:14:32.132Z,57.98
2022-09-07T10:15:07.742Z,57.86
2022-09-07T10:15:49.082Z,58.29
2022-09-07T10:16:23.161Z,58.24
2022-09-07T10:16:58.792Z,58.31
2022-09-07T10:17:53.978Z,58.26
2022-09-07T10:18:51.022Z,58.10
2022-09-07T10:19:30.781Z,57.76
2022-09-07T10:20:43.997Z,58.33
2022-09-07T10:21:33.189Z,57.80
2022-09-07T10:22:51.491Z,58.19
2022-09-07T10:23:27.872Z,58.41
2022-09-07T10:24:21.019Z,57.96
2022-09-07T10:24:54.907Z,58.03
2022-09-07T10:25:50.961Z,57.78
2022-09-07T10:26:34.791Z,58.06
2022-09-07T10:27:53.053Z,58.06
2022-09-07T10:29:06.563Z,58.01
2022-09-07T10:29:45.016Z,57.54
2022-09-07T10:30:19.833Z,57.89
2022-09-07T10:32:12.971Z,57.90
2022-09-07T10:33:09.117Z,57.45
2022-09-07T10:34:38.986Z,57.91
2022-09-07T10:35:40.001Z,58.27
2022-09-07T10:36:49.214Z,58.19
2022-09-07T10:37:58.974Z,57.74
2022-09-07T10:39:01.149Z,57.79
2022-09-07T10:39:44.046Z,57.35
2022-09-07T10:40:58.008Z,57.80
2022-09-07T10:41:43.622Z,57.76
2022-09-07T10:43:20.669Z,57.77
2022-09-07T10:43:50.381Z,57.46
2022-09-07T10:45:27.988Z,57.26
2022-09-07T10:46:12.400Z,57.34
2022-09-07T10:47:10.150Z,57.63
2022-09-07T10:48:09.017Z,57.65
2022-09-07T10:49:15.062Z,57.82
2022-09-07T10:50:23.296Z,57.83
2022-09-07T10:51:14.270Z,57.15
2022-09-07T10:52:23.981Z,56.64
2022-09-07T10:54:29.513Z,56.86
2022-09-07T10:54:43.957Z,56.35
2022-09-07T10:55:39.036Z,56.58
2022-09-07T10:56:48.084Z,56.91
2022-09-07T10:58:01.053Z,57.08
2022-09-07T10:59:02.274Z,57.69
2022-09-07T11:00:21.957Z,57.69
2022-09-07T11:00:55.880Z,57.74